createdAt,value
2022-07-28T00:00:16.035Z,98.57
2022-07-28T00:02:16.325Z,98.57
2022-07-28T00:04:16.830Z,98.74
2022-07-28T00:07:33.540Z,159.80
2022-07-28T00:09:33.676Z,135.65
2022-07-28T00:11:33.740Z,123.18
2022-07-28T00:13:33.881Z,117.27
2022-07-28T00:15:34.316Z,113.64
2022-07-28T00:17:34.088Z,110.37
2022-07-28T00:19:34.206Z,108.94
2022-07-28T00:21:34.337Z,107.28
2022-07-28T00:23:39.629Z,106.20
2022-07-28T00:25:35.589Z,105.53
2022-07-28T00:27:34.692Z,104.75
2022-07-28T00:29:42.602Z,104.23
2022-07-28T00:31:36.068Z,103.59
2022-07-28T00:33:35.090Z,103.46
2022-07-28T00:35:35.188Z,102.21
2022-07-28T00:37:35.280Z,102.64
2022-07-28T00:39:35.377Z,102.46
2022-07-28T00:41:35.528Z,102.09
2022-07-28T00:43:35.668Z,100.81
2022-07-28T00:45:35.760Z,102.64
2022-07-28T00:47:35.929Z,101.84
2022-07-28T00:49:35.994Z,101.72
2022-07-28T00:51:36.114Z,101.84
2022-07-28T00:53:36.284Z,101.66
2022-07-28T00:56:03.034Z,101.96
2022-07-28T00:57:37.549Z,101.66
2022-07-28T00:59:36.653Z,101.84
2022-07-28T01:01:36.974Z,102.09
2022-07-28T01:03:36.933Z,100.93
2022-07-28T01:05:43.906Z,102.09
2022-07-28T01:07:38.169Z,100.27
2022-07-28T01:09:37.296Z,102.03
2022-07-28T01:11:43.101Z,101.78
2022-07-28T01:13:38.512Z,101.29
2022-07-28T01:15:37.886Z,101.23
2022-07-28T01:17:37.805Z,100.09
2022-07-28T01:19:37.905Z,101.60
2022-07-28T01:21:38.021Z,101.05
2022-07-28T01:23:38.181Z,100.09
2022-07-28T01:25:38.301Z,101.78
2022-07-28T01:27:38.431Z,100.15
2022-07-28T01:29:38.542Z,101.84
2022-07-28T01:31:38.791Z,100.15
2022-07-28T01:33:38.836Z,100.81
2022-07-28T01:35:38.882Z,100.51
2022-07-28T01:37:39.041Z,100.27
2022-07-28T01:39:39.104Z,99.97
2022-07-28T01:41:39.240Z,100.93
2022-07-28T01:43:39.367Z,100.57
2022-07-28T01:45:39.485Z,100.75
2022-07-28T01:47:39.637Z,100.75
2022-07-28T01:49:39.752Z,100.81
2022-07-28T01:51:39.863Z,102.71
2022-07-28T01:53:39.960Z,100.63
2022-07-28T01:55:40.138Z,100.75
2022-07-28T01:57:40.246Z,100.87
2022-07-28T01:59:40.376Z,100.57
2022-07-28T02:01:40.532Z,100.03
2022-07-28T02:03:40.597Z,100.57
2022-07-28T02:05:40.724Z,100.09
2022-07-28T02:07:40.879Z,100.39
2022-07-28T02:09:41.004Z,100.75
2022-07-28T02:11:41.118Z,100.51
2022-07-28T02:13:41.252Z,100.09
2022-07-28T02:15:41.387Z,100.51
2022-07-28T02:17:41.505Z,100.51
2022-07-28T02:19:41.615Z,100.21
2022-07-28T02:21:41.700Z,100.93
2022-07-28T02:23:41.878Z,100.93
2022-07-28T02:25:41.940Z,101.29
2022-07-28T02:27:42.076Z,100.99
2022-07-28T02:29:50.662Z,100.87
2022-07-28T02:31:43.325Z,100.99
2022-07-28T02:33:58.870Z,101.41
2022-07-28T02:35:43.627Z,101.23
2022-07-28T02:37:42.697Z,101.41
2022-07-28T02:39:42.877Z,101.23
2022-07-28T02:41:43.944Z,100.75
2022-07-28T02:43:50.607Z,101.47
2022-07-28T02:45:44.270Z,100.75
2022-07-28T02:47:43.344Z,100.87
2022-07-28T02:49:43.470Z,101.11
2022-07-28T02:51:43.545Z,100.51
2022-07-28T02:53:43.695Z,101.17
2022-07-28T02:55:43.854Z,100.51
2022-07-28T02:57:43.915Z,100.63
2022-07-28T02:59:44.035Z,100.81
2022-07-28T03:01:44.205Z,100.51
2022-07-28T03:03:44.310Z,100.87
2022-07-28T03:05:44.429Z,100.75
2022-07-28T03:07:51.227Z,100.51
2022-07-28T03:09:45.657Z,100.63
2022-07-28T03:11:44.756Z,100.81
2022-07-28T03:13:44.858Z,100.27
2022-07-28T03:15:44.969Z,100.15
2022-07-28T03:17:45.073Z,100.63
2022-07-28T03:19:45.213Z,100.09
2022-07-28T03:21:45.382Z,100.33
2022-07-28T03:23:45.459Z,101.05
2022-07-28T03:25:45.648Z,100.87
2022-07-28T03:27:45.822Z,100.93
2022-07-28T03:29:45.991Z,100.63
2022-07-28T03:31:46.070Z,101.35
2022-07-28T03:33:46.107Z,100.51
2022-07-28T03:35:46.239Z,101.29
2022-07-28T03:37:46.364Z,100.93
2022-07-28T03:39:46.505Z,101.17
2022-07-28T03:41:46.665Z,100.69
2022-07-28T03:43:46.715Z,101.11
2022-07-28T03:45:47.186Z,100.57
2022-07-28T03:47:46.944Z,100.63
2022-07-28T03:49:47.089Z,100.99
2022-07-28T03:51:47.252Z,101.29
2022-07-28T03:53:47.351Z,100.57
2022-07-28T03:55:47.516Z,100.15
2022-07-28T03:57:47.606Z,100.51
2022-07-28T03:59:47.708Z,100.39
2022-07-28T04:01:47.892Z,99.97
2022-07-28T04:03:47.888Z,100.63
2022-07-28T04:05:48.038Z,99.97
2022-07-28T04:07:48.144Z,99.73
2022-07-28T04:09:48.225Z,100.39
2022-07-28T04:11:48.336Z,100.03
2022-07-28T04:13:48.434Z,99.50
2022-07-28T04:17:05.014Z,160.87
2022-07-28T04:19:05.036Z,134.03
2022-07-28T04:21:05.145Z,122.73
2022-07-28T04:23:05.321Z,116.06
2022-07-28T04:25:05.435Z,112.28
2022-07-28T04:27:05.537Z,109.22
2022-07-28T04:29:05.629Z,106.53
2022-07-28T04:31:05.847Z,105.73
2022-07-28T04:33:05.917Z,103.85
2022-07-28T04:35:06.015Z,103.40
2022-07-28T04:37:06.147Z,102.15
2022-07-28T04:39:06.240Z,102.03
2022-07-28T04:41:06.391Z,101.53
2022-07-28T04:43:06.494Z,100.75
2022-07-28T04:45:06.624Z,100.69
2022-07-28T04:47:06.775Z,99.73
2022-07-28T04:49:06.934Z,98.80
2022-07-28T04:51:06.994Z,98.57
2022-07-28T04:53:07.181Z,98.92
2022-07-28T04:55:07.256Z,98.74
2022-07-28T04:57:08.247Z,98.00
2022-07-28T04:59:08.583Z,97.77
2022-07-28T05:01:07.733Z,97.43
2022-07-28T05:03:07.850Z,97.26
2022-07-28T05:05:08.084Z,96.87
2022-07-28T05:07:12.535Z,96.87
2022-07-28T05:09:08.278Z,96.82
2022-07-28T05:11:08.355Z,95.93
2022-07-28T05:13:08.509Z,96.15
2022-07-28T05:15:08.682Z,96.26
2022-07-28T05:17:09.135Z,95.77
2022-07-28T05:19:08.949Z,94.80
2022-07-28T05:21:09.100Z,94.64
2022-07-28T05:23:09.216Z,96.04
2022-07-28T05:25:09.401Z,94.22
2022-07-28T05:27:09.504Z,93.62
2022-07-28T05:29:09.688Z,93.70
2022-07-28T05:31:09.782Z,95.32
2022-07-28T05:33:09.889Z,94.57
2022-07-28T05:35:10.096Z,94.46
2022-07-28T05:37:10.194Z,94.57
2022-07-28T05:39:10.356Z,93.31
2022-07-28T05:41:10.464Z,93.31
2022-07-28T05:43:10.635Z,92.50
2022-07-28T05:45:15.956Z,92.39
2022-07-28T05:47:11.889Z,91.29
2022-07-28T05:49:11.120Z,90.71
2022-07-28T05:51:11.205Z,90.41
2022-07-28T05:53:11.340Z,90.32
2022-07-28T05:55:11.450Z,89.17
2022-07-28T05:57:15.393Z,89.17
2022-07-28T05:59:11.725Z,88.80
2022-07-28T06:01:11.981Z,88.15
2022-07-28T06:03:12.005Z,87.87
2022-07-28T06:05:12.141Z,87.60
2022-07-28T06:07:12.280Z,86.97
2022-07-28T06:09:12.418Z,87.15
2022-07-28T06:11:13.040Z,86.79
2022-07-28T06:13:13.657Z,86.34
2022-07-28T06:15:12.830Z,85.82
2022-07-28T06:17:12.985Z,84.87
2022-07-28T06:19:13.076Z,84.61
2022-07-28T06:21:13.213Z,84.19
2022-07-28T06:23:13.342Z,83.19
2022-07-28T06:25:13.471Z,82.54
2022-07-28T06:27:13.588Z,81.82
2022-07-28T06:29:13.692Z,80.34
2022-07-28T06:31:13.886Z,79.43
2022-07-28T06:33:17.172Z,76.00
2022-07-28T06:35:14.062Z,70.30
2022-07-28T06:37:14.193Z,63.38
2022-07-28T06:39:14.338Z,58.18
2022-07-28T06:41:14.487Z,53.40
2022-07-28T06:43:14.760Z,48.88
2022-07-28T06:45:19.536Z,45.46
2022-07-28T06:47:15.949Z,42.27
2022-07-28T06:49:15.406Z,39.43
2022-07-28T06:51:15.116Z,36.98
2022-07-28T06:53:15.210Z,35.22
2022-07-28T06:55:15.356Z,33.76
2022-07-28T06:57:15.465Z,32.97
2022-07-28T06:59:15.960Z,31.87
2022-07-28T07:01:15.800Z,31.12
2022-07-28T07:03:15.811Z,30.42
2022-07-28T07:05:15.891Z,29.72
2022-07-28T07:07:17.266Z,29.51
2022-07-28T07:09:16.195Z,29.02
2022-07-28T07:11:16.342Z,28.88
2022-07-28T07:13:16.437Z,28.71
2022-07-28T07:15:16.623Z,28.51
2022-07-28T07:17:16.720Z,28.51
2022-07-28T07:19:16.869Z,28.63
2022-07-28T07:21:16.960Z,28.75
2022-07-28T07:23:17.062Z,28.86
2022-07-28T07:25:17.298Z,28.77
2022-07-28T07:27:17.392Z,28.81
2022-07-28T07:29:17.453Z,28.77
2022-07-28T07:31:17.627Z,28.77
2022-07-28T07:33:17.778Z,28.69
2022-07-28T07:35:17.909Z,28.84
2022-07-28T07:37:18.658Z,29.00
2022-07-28T07:39:18.225Z,29.26
2022-07-28T07:41:18.350Z,29.49
2022-07-28T07:43:18.472Z,29.72
2022-07-28T07:45:18.595Z,30.18
2022-07-28T07:47:18.778Z,30.78
2022-07-28T07:49:19.017Z,31.24
2022-07-28T07:51:19.059Z,31.90
2022-07-28T07:53:19.181Z,32.53
2022-07-28T07:55:19.341Z,33.17
2022-07-28T07:57:19.476Z,33.70
2022-07-28T07:59:19.601Z,34.28
2022-07-28T08:01:19.764Z,34.76
2022-07-28T08:03:22.484Z,35.40
2022-07-28T08:05:19.978Z,35.82
2022-07-28T08:07:22.025Z,36.28
2022-07-28T08:09:20.237Z,36.75
2022-07-28T08:11:20.410Z,37.14
2022-07-28T08:13:20.543Z,37.21
2022-07-28T08:15:20.716Z,37.74
2022-07-28T08:17:25.233Z,37.84
2022-07-28T08:19:21.973Z,37.94
2022-07-28T08:21:21.102Z,38.08
2022-07-28T08:23:26.074Z,38.56
2022-07-28T08:25:22.325Z,38.64
2022-07-28T08:27:21.409Z,38.67
2022-07-28T08:29:21.589Z,38.74
2022-07-28T08:31:21.973Z,38.64
2022-07-28T08:33:22.065Z,38.71
2022-07-28T08:35:33.014Z,38.60
2022-07-28T08:37:23.346Z,38.46
2022-07-28T08:39:22.309Z,38.53
2022-07-28T08:41:22.423Z,38.60
2022-07-28T08:43:22.598Z,38.56
2022-07-28T08:45:22.671Z,38.42
2022-07-28T08:47:22.798Z,38.49
2022-07-28T08:49:22.981Z,38.49
2022-07-28T08:51:23.182Z,38.35
2022-07-28T08:53:23.216Z,38.18
2022-07-28T08:55:23.456Z,38.15
2022-07-28T08:57:23.506Z,38.01
2022-07-28T08:59:23.667Z,38.01
2022-07-28T09:01:23.769Z,38.29
2022-07-28T09:03:23.955Z,38.49
2022-07-28T09:05:24.037Z,38.71
2022-07-28T09:07:24.158Z,38.99
2022-07-28T09:09:24.290Z,39.28
2022-07-28T09:11:24.389Z,39.43
2022-07-28T09:13:24.507Z,39.36
2022-07-28T09:15:24.608Z,39.54
2022-07-28T09:17:24.746Z,39.65
2022-07-28T09:19:24.930Z,39.69
2022-07-28T09:21:26.053Z,39.65
2022-07-28T09:23:42.215Z,39.65
2022-07-28T09:25:26.352Z,39.47
2022-07-28T09:27:25.436Z,39.54
2022-07-28T09:29:25.628Z,39.54
2022-07-28T09:31:25.732Z,39.47
2022-07-28T09:33:42.148Z,39.58
2022-07-28T09:35:27.027Z,39.50
2022-07-28T09:37:27.652Z,39.39
2022-07-28T09:39:26.183Z,39.54
2022-07-28T09:41:26.376Z,39.65
2022-07-28T09:43:26.446Z,39.58
2022-07-28T09:45:26.597Z,39.58
2022-07-28T09:47:26.810Z,39.65
2022-07-28T09:49:28.915Z,39.39
2022-07-28T09:51:26.969Z,39.47
2022-07-28T09:53:28.455Z,39.69
2022-07-28T09:55:27.416Z,40.03
2022-07-28T09:57:27.677Z,40.14
2022-07-28T09:59:27.685Z,40.10
2022-07-28T10:01:28.601Z,40.33
2022-07-28T10:03:28.859Z,40.41
2022-07-28T10:05:27.964Z,40.18
2022-07-28T10:07:28.163Z,40.03
2022-07-28T10:09:28.158Z,39.99
2022-07-28T10:11:28.343Z,39.99
2022-07-28T10:13:28.669Z,39.88
2022-07-28T10:15:31.121Z,39.62
2022-07-28T10:17:28.766Z,39.62
2022-07-28T10:19:28.885Z,39.36
2022-07-28T10:21:29.114Z,39.25
2022-07-28T10:23:29.142Z,39.14
2022-07-28T10:25:29.270Z,38.96
2022-07-28T10:27:29.403Z,39.14
2022-07-28T10:29:29.544Z,38.85
2022-07-28T10:31:29.702Z,39.17
2022-07-28T10:33:29.795Z,39.39
2022-07-28T10:35:29.924Z,39.36
2022-07-28T10:37:30.129Z,39.62
2022-07-28T10:39:30.183Z,39.73
2022-07-28T10:41:30.310Z,39.84
2022-07-28T10:43:30.520Z,39.73
2022-07-28T10:45:55.117Z,40.07
2022-07-28T10:47:35.794Z,39.88
2022-07-28T10:49:32.300Z,40.10
2022-07-28T10:51:31.001Z,39.65
2022-07-28T10:53:31.127Z,39.58
2022-07-28T10:55:32.273Z,39.10
2022-07-28T10:57:31.435Z,39.25
2022-07-28T10:59:31.532Z,38.88
2022-07-28T11:01:47.568Z,38.85
2022-07-28T11:03:32.891Z,38.92
2022-07-28T11:05:32.076Z,39.17
2022-07-28T11:07:32.082Z,38.96
2022-07-28T11:09:32.173Z,38.96
2022-07-28T11:11:32.341Z,38.85
2022-07-28T11:13:32.989Z,39.06
2022-07-28T11:15:32.771Z,39.10
2022-07-28T11:17:33.470Z,38.92
2022-07-28T11:19:40.651Z,38.92
2022-07-28T11:21:41.174Z,39.03
2022-07-28T11:23:34.223Z,38.99
2022-07-28T11:25:33.321Z,39.58
2022-07-28T11:27:33.536Z,40.18
2022-07-28T11:29:33.586Z,40.33
2022-07-28T11:31:33.774Z,40.72
2022-07-28T11:33:33.834Z,40.96
2022-07-28T11:35:33.950Z,41.65
2022-07-28T11:37:34.095Z,42.40
2022-07-28T11:39:42.808Z,43.00
2022-07-28T11:41:35.352Z,43.62
2022-07-28T11:43:36.082Z,44.36
2022-07-28T11:45:38.443Z,44.73
2022-07-28T11:47:34.870Z,44.88
2022-07-28T11:49:34.940Z,44.78
2022-07-28T11:51:38.834Z,45.36
2022-07-28T11:53:36.188Z,45.51
2022-07-28T11:55:56.016Z,45.70
2022-07-28T11:57:36.432Z,45.85
2022-07-28T11:59:36.493Z,45.90
2022-07-28T12:01:37.040Z,46.46
2022-07-28T12:03:49.276Z,47.03
2022-07-28T12:05:41.642Z,47.03
2022-07-28T12:07:36.103Z,47.56
2022-07-28T12:09:42.246Z,48.18
2022-07-28T12:11:37.861Z,48.65
2022-07-28T12:13:37.340Z,49.39
2022-07-28T12:15:36.512Z,50.04
2022-07-28T12:17:36.635Z,50.82
2022-07-28T12:19:36.748Z,51.13
2022-07-28T12:21:37.022Z,51.32
2022-07-28T12:23:44.273Z,51.69
2022-07-28T12:25:38.032Z,51.88
2022-07-28T12:27:37.641Z,51.88
2022-07-28T12:29:37.342Z,51.76
2022-07-28T12:31:37.502Z,51.79
2022-07-28T12:33:37.553Z,51.82
2022-07-28T12:35:37.695Z,51.13
2022-07-28T12:37:37.884Z,51.41
2022-07-28T12:39:38.017Z,51.32
2022-07-28T12:41:38.108Z,50.94
2022-07-28T12:43:38.305Z,50.94
2022-07-28T12:45:38.386Z,50.76
2022-07-28T12:47:38.458Z,50.70
2022-07-28T12:49:38.573Z,50.52
2022-07-28T12:51:38.836Z,50.61
2022-07-28T12:53:38.865Z,50.70
2022-07-28T12:55:39.235Z,50.70
2022-07-28T12:57:42.126Z,50.25
2022-07-28T12:59:40.207Z,49.74
2022-07-28T13:01:39.457Z,49.31
2022-07-28T13:03:39.534Z,48.99
2022-07-28T13:05:39.610Z,48.96
2022-07-28T13:07:39.660Z,48.71
2022-07-28T13:09:39.761Z,48.51
2022-07-28T13:11:47.166Z,48.49
2022-07-28T13:13:41.033Z,48.07
2022-07-28T13:15:40.186Z,47.45
2022-07-28T13:17:40.234Z,47.56
2022-07-28T13:19:40.326Z,47.13
2022-07-28T13:21:40.554Z,47.08
2022-07-28T13:23:41.555Z,47.08
2022-07-28T13:25:40.739Z,47.24
2022-07-28T13:27:40.777Z,47.34
2022-07-28T13:29:40.947Z,47.45
2022-07-28T13:31:41.088Z,47.58
2022-07-28T13:33:41.165Z,47.83
2022-07-28T13:35:41.348Z,47.72
2022-07-28T13:37:41.424Z,48.02
2022-07-28T13:39:41.577Z,48.51
2022-07-28T13:41:57.131Z,48.85
2022-07-28T13:43:42.891Z,49.19
2022-07-28T13:45:42.998Z,49.22
2022-07-28T13:47:42.096Z,49.48
2022-07-28T13:49:42.253Z,49.74
2022-07-28T13:51:42.337Z,49.95
2022-07-28T13:53:42.536Z,50.16
2022-07-28T13:55:42.672Z,50.49
2022-07-28T13:57:43.144Z,50.52
2022-07-28T13:59:43.899Z,50.67
2022-07-28T14:01:43.011Z,50.82
2022-07-28T14:03:56.032Z,51.13
2022-07-28T14:05:44.217Z,51.41
2022-07-28T14:07:48.504Z,52.14
2022-07-28T14:09:44.451Z,52.24
2022-07-28T14:11:50.136Z,52.63
2022-07-28T14:13:44.656Z,52.66
2022-07-28T14:15:43.763Z,52.86
2022-07-28T14:17:46.040Z,52.83
2022-07-28T14:19:44.049Z,52.83
2022-07-28T14:21:44.212Z,52.73
2022-07-28T14:23:44.371Z,52.93
2022-07-28T14:25:49.602Z,52.93
2022-07-28T14:27:45.579Z,53.09
2022-07-28T14:29:44.859Z,52.99
2022-07-28T14:31:44.878Z,53.19
2022-07-28T14:33:48.371Z,52.89
2022-07-28T14:35:46.149Z,53.40
2022-07-28T14:39:46.387Z,53.87
2022-07-28T14:41:45.425Z,54.36
2022-07-28T14:43:45.571Z,54.43
2022-07-28T14:45:51.446Z,54.78
2022-07-28T14:47:46.956Z,54.71
2022-07-28T14:49:57.686Z,55.25
2022-07-28T14:51:47.139Z,55.58
2022-07-28T14:53:49.920Z,56.06
2022-07-28T14:55:47.324Z,56.13
2022-07-28T14:57:52.441Z,56.62
2022-07-28T14:59:47.955Z,56.62
2022-07-28T15:01:46.847Z,56.81
2022-07-28T15:03:46.899Z,57.04
2022-07-28T15:05:47.025Z,57.23
2022-07-28T15:07:47.388Z,57.27
2022-07-28T15:09:50.430Z,57.47
2022-07-28T15:11:47.615Z,57.62
2022-07-28T15:13:47.562Z,57.78
2022-07-28T15:15:47.722Z,57.58
2022-07-28T15:17:47.748Z,57.74
2022-07-28T15:19:47.909Z,57.94
2022-07-28T15:21:48.254Z,57.98
2022-07-28T15:23:48.235Z,58.02
2022-07-28T15:25:48.331Z,58.10
2022-07-28T15:27:48.426Z,58.06
2022-07-28T15:29:50.406Z,58.18
2022-07-28T15:31:48.758Z,58.26
2022-07-28T15:33:51.680Z,58.38
2022-07-28T15:35:57.980Z,58.50
2022-07-28T15:37:50.176Z,58.58
2022-07-28T15:39:49.274Z,58.71
2022-07-28T15:41:49.316Z,58.75
2022-07-28T15:43:49.776Z,58.87
2022-07-28T15:45:49.660Z,59.12
2022-07-28T15:47:49.737Z,59.16
2022-07-28T15:49:49.796Z,59.28
2022-07-28T15:51:50.090Z,59.37
2022-07-28T15:53:50.344Z,59.75
2022-07-28T15:55:51.436Z,59.58
2022-07-28T15:57:50.403Z,59.62
2022-07-28T15:59:50.959Z,60.13
2022-07-28T16:01:50.675Z,60.00
2022-07-28T16:03:50.760Z,60.35
2022-07-28T16:05:51.177Z,60.30
2022-07-28T16:07:51.077Z,60.30
2022-07-28T16:09:51.198Z,60.52
2022-07-28T16:11:51.317Z,60.52
2022-07-28T16:13:51.589Z,60.65
2022-07-28T16:15:51.691Z,60.78
2022-07-28T16:17:51.762Z,60.69
2022-07-28T16:19:51.985Z,60.91
2022-07-28T16:21:52.042Z,60.96
2022-07-28T16:23:52.180Z,61.04
2022-07-28T16:25:52.633Z,61.09
2022-07-28T16:27:52.493Z,61.04
2022-07-28T16:29:52.618Z,61.31
2022-07-28T16:31:52.831Z,61.13
2022-07-28T16:33:52.904Z,61.31
2022-07-28T16:35:53.873Z,61.35
2022-07-28T16:37:53.154Z,61.40
2022-07-28T16:39:53.277Z,61.58
2022-07-28T16:41:53.446Z,61.58
2022-07-28T16:43:53.532Z,61.99
2022-07-28T16:45:53.669Z,62.03
2022-07-28T16:47:53.879Z,62.12
2022-07-28T16:49:53.921Z,62.40
2022-07-28T16:51:54.061Z,62.44
2022-07-28T16:53:54.220Z,62.58
2022-07-28T16:55:54.379Z,62.68
2022-07-28T16:57:54.505Z,62.96
2022-07-28T16:59:54.572Z,63.15
2022-07-28T17:01:55.148Z,63.24
2022-07-28T17:03:54.953Z,63.62
2022-07-28T17:05:55.020Z,63.81
2022-07-28T17:07:55.120Z,63.67
2022-07-28T17:09:55.330Z,63.86
2022-07-28T17:11:55.933Z,64.50
2022-07-28T17:13:55.600Z,64.40
2022-07-28T17:15:55.779Z,64.74
2022-07-28T17:17:55.878Z,65.04
2022-07-28T17:19:56.033Z,64.84
2022-07-28T17:21:56.126Z,65.04
2022-07-28T17:23:56.313Z,65.35
2022-07-28T17:26:45.678Z,65.40
2022-07-28T17:27:57.590Z,65.91
2022-07-28T17:29:56.745Z,65.55
2022-07-28T17:31:56.961Z,65.86
2022-07-28T17:33:57.028Z,66.01
2022-07-28T17:35:57.226Z,65.86
2022-07-28T17:37:57.302Z,65.91
2022-07-28T17:39:57.528Z,66.22
2022-07-28T17:41:57.629Z,66.37
2022-07-28T17:43:57.823Z,66.43
2022-07-28T17:45:57.840Z,66.79
2022-07-28T17:47:57.974Z,66.85
2022-07-28T17:49:58.181Z,66.95
2022-07-28T17:51:58.257Z,66.85
2022-07-28T17:53:58.331Z,67.01
2022-07-28T17:56:00.268Z,67.06
2022-07-28T17:57:58.579Z,67.17
2022-07-28T17:59:58.694Z,67.01
2022-07-28T18:01:59.069Z,66.95
2022-07-28T18:04:00.918Z,66.95
2022-07-28T18:05:59.140Z,67.27
2022-07-28T18:07:59.454Z,67.54
2022-07-28T18:09:59.275Z,67.60
2022-07-28T18:11:59.575Z,67.60
2022-07-28T18:14:03.808Z,67.71
2022-07-28T18:16:00.668Z,68.03
2022-07-28T18:17:59.805Z,68.09
2022-07-28T18:19:59.878Z,68.42
2022-07-28T18:21:59.982Z,68.25
2022-07-28T18:24:00.118Z,68.75
2022-07-28T18:26:00.221Z,69.09
2022-07-28T18:28:00.326Z,68.81
2022-07-28T18:30:00.422Z,69.15
2022-07-28T18:32:00.538Z,69.15
2022-07-28T18:34:00.654Z,69.15
2022-07-28T18:36:01.320Z,69.26
2022-07-28T18:38:00.918Z,69.26
2022-07-28T18:40:01.046Z,69.04
2022-07-28T18:42:01.083Z,69.49
2022-07-28T18:44:01.255Z,69.60
2022-07-28T18:46:01.385Z,69.72
2022-07-28T18:48:01.489Z,69.95
2022-07-28T18:50:01.549Z,69.95
2022-07-28T18:52:01.675Z,70.36
2022-07-28T18:54:01.809Z,69.95
2022-07-28T18:56:02.017Z,70.65
2022-07-28T18:58:02.069Z,70.24
2022-07-28T19:00:02.176Z,70.24
2022-07-28T19:02:02.717Z,70.48
2022-07-28T19:04:02.428Z,70.48
2022-07-28T19:06:03.496Z,70.71
2022-07-28T19:08:02.714Z,70.77
2022-07-28T19:10:02.840Z,70.95
2022-07-28T19:12:02.988Z,71.13
2022-07-28T19:14:03.098Z,71.31
2022-07-28T19:16:03.295Z,71.31
2022-07-28T19:18:10.166Z,71.61
2022-07-28T19:20:04.445Z,71.74
2022-07-28T19:22:03.554Z,71.19
2022-07-28T19:24:03.704Z,71.55
2022-07-28T19:26:03.828Z,71.49
2022-07-28T19:28:03.905Z,71.98
2022-07-28T19:30:04.029Z,72.04
2022-07-28T19:32:04.183Z,72.10
2022-07-28T19:34:05.262Z,72.23
2022-07-28T19:36:04.440Z,72.35
2022-07-28T19:38:04.572Z,72.10
2022-07-28T19:40:04.688Z,72.41
2022-07-28T19:42:04.980Z,72.66
2022-07-28T19:44:04.968Z,72.60
2022-07-28T19:46:05.139Z,73.10
2022-07-28T19:48:05.235Z,73.17
2022-07-28T19:50:05.319Z,73.17
2022-07-28T19:52:05.405Z,73.42
2022-07-28T19:54:05.554Z,73.48
2022-07-28T19:56:05.686Z,73.36
2022-07-28T19:58:05.768Z,73.81
2022-07-28T20:00:05.893Z,73.61
2022-07-28T20:02:06.041Z,73.87
2022-07-28T20:04:06.174Z,73.74
2022-07-28T20:06:06.264Z,73.74
2022-07-28T20:08:06.525Z,74.00
2022-07-28T20:10:06.672Z,74.26
2022-07-28T20:12:07.703Z,74.52
2022-07-28T20:14:06.755Z,74.19
2022-07-28T20:16:06.784Z,74.26
2022-07-28T20:18:06.931Z,74.39
2022-07-28T20:20:07.088Z,73.93
2022-07-28T20:22:07.195Z,74.13
2022-07-28T20:24:07.284Z,74.26
2022-07-28T20:26:07.414Z,74.13
2022-07-28T20:28:07.535Z,74.26
2022-07-28T20:30:07.691Z,74.72
2022-07-28T20:32:07.823Z,74.46
2022-07-28T20:34:07.976Z,74.33
2022-07-28T20:36:08.081Z,74.65
2022-07-28T20:38:08.178Z,74.39
2022-07-28T20:40:08.320Z,74.39
2022-07-28T20:42:08.436Z,74.59
2022-07-28T20:44:29.328Z,74.65
2022-07-28T20:46:09.774Z,74.79
2022-07-28T20:48:08.813Z,74.99
2022-07-28T20:50:09.900Z,74.92
2022-07-28T20:52:09.063Z,74.79
2022-07-28T20:54:09.169Z,75.19
2022-07-28T20:56:09.312Z,75.39
2022-07-28T20:58:09.466Z,74.99
2022-07-28T21:00:09.602Z,75.05
2022-07-28T21:02:09.845Z,75.25
2022-07-28T21:04:11.364Z,75.05
2022-07-28T21:06:09.908Z,75.46
2022-07-28T21:08:16.102Z,75.59
2022-07-28T21:10:11.154Z,75.73
2022-07-28T21:12:10.266Z,75.79
2022-07-28T21:14:10.380Z,75.73
2022-07-28T21:16:10.633Z,75.86
2022-07-28T21:18:10.695Z,75.79
2022-07-28T21:20:10.788Z,76.00
2022-07-28T21:22:10.906Z,76.00
2022-07-28T21:24:11.054Z,76.07
2022-07-28T21:26:11.153Z,76.14
2022-07-28T21:28:11.277Z,76.69
2022-07-28T21:30:11.392Z,76.55
2022-07-28T21:32:11.535Z,76.48
2022-07-28T21:34:11.881Z,76.21
2022-07-28T21:36:11.787Z,76.41
2022-07-28T21:38:11.910Z,76.62
2022-07-28T21:40:12.090Z,76.55
2022-07-28T21:42:12.175Z,76.55
2022-07-28T21:44:12.317Z,76.76
2022-07-28T21:46:12.532Z,76.90
2022-07-28T21:48:12.584Z,76.48
2022-07-28T21:50:12.734Z,76.69
2022-07-28T21:52:12.892Z,76.76
2022-07-28T21:54:13.370Z,76.69
2022-07-28T21:56:13.120Z,77.04
2022-07-28T21:58:13.236Z,76.90
2022-07-28T22:00:13.349Z,77.04
2022-07-28T22:02:13.503Z,76.76
2022-07-28T22:04:13.972Z,76.97
2022-07-28T22:06:13.735Z,76.62
2022-07-28T22:08:15.831Z,76.55
2022-07-28T22:10:14.154Z,76.90
2022-07-28T22:12:14.062Z,76.83
2022-07-28T22:14:14.557Z,76.69
2022-07-28T22:16:14.325Z,77.04
2022-07-28T22:18:16.834Z,77.11
2022-07-28T22:20:14.526Z,77.11
2022-07-28T22:22:14.678Z,76.90
2022-07-28T22:24:15.040Z,77.46
2022-07-28T22:26:14.948Z,77.11
2022-07-28T22:28:15.053Z,77.25
2022-07-28T22:30:15.222Z,77.25
2022-07-28T22:32:15.303Z,77.25
2022-07-28T22:34:15.714Z,77.39
2022-07-28T22:36:15.509Z,77.46
2022-07-28T22:38:15.685Z,77.39
2022-07-28T22:40:15.790Z,77.46
2022-07-28T22:42:15.911Z,77.61
2022-07-28T22:44:16.322Z,77.61
2022-07-28T22:46:16.196Z,77.68
2022-07-28T22:48:16.288Z,77.75
2022-07-28T22:50:16.454Z,77.54
2022-07-28T22:52:16.531Z,77.68
2022-07-28T22:54:17.087Z,77.89
2022-07-28T22:56:16.839Z,77.75
2022-07-28T22:58:16.927Z,77.68
2022-07-28T23:00:17.089Z,78.04
2022-07-28T23:02:17.162Z,78.04
2022-07-28T23:04:17.698Z,78.11
2022-07-28T23:06:17.740Z,78.04
2022-07-28T23:08:17.509Z,78.25
2022-07-28T23:10:17.645Z,78.04
2022-07-28T23:12:17.858Z,77.97
2022-07-28T23:14:18.138Z,77.89
2022-07-28T23:16:18.100Z,77.97
2022-07-28T23:18:18.165Z,77.89
2022-07-28T23:20:18.333Z,78.11
2022-07-28T23:22:18.450Z,77.97
2022-07-28T23:24:18.848Z,77.89
2022-07-28T23:26:18.696Z,78.25
2022-07-28T23:28:18.809Z,78.55
2022-07-28T23:30:18.941Z,78.25
2022-07-28T23:32:19.129Z,78.47
2022-07-28T23:34:19.449Z,78.40
2022-07-28T23:36:26.542Z,78.25
2022-07-28T23:38:20.449Z,78.33
2022-07-28T23:40:19.591Z,78.47
2022-07-28T23:42:19.737Z,78.11
2022-07-28T23:44:19.846Z,78.40
2022-07-28T23:46:20.083Z,78.11
2022-07-28T23:48:20.159Z,78.25
2022-07-28T23:50:20.395Z,78.47
2022-07-28T23:52:20.397Z,78.33
2022-07-28T23:54:20.580Z,78.33
2022-07-28T23:56:20.678Z,78.33
2022-07-28T23:58:20.774Z,78.04
